createdAt,value
2023-03-18T00:01:13.201Z,6.60
2023-03-18T00:06:18.589Z,6.50
2023-03-18T00:11:23.013Z,6.60
2023-03-18T00:16:25.575Z,6.50
2023-03-18T00:21:28.125Z,6.50
2023-03-18T00:26:32.031Z,6.60
2023-03-18T00:31:34.166Z,6.50
2023-03-18T00:36:36.664Z,6.50
2023-03-18T00:41:40.776Z,6.30
2023-03-18T00:46:42.976Z,6.20
2023-03-18T00:51:45.501Z,6.00
2023-03-18T00:56:49.869Z,5.90
2023-03-18T01:01:52.606Z,6.20
2023-03-18T01:06:55.045Z,6.00
2023-03-18T01:11:58.546Z,5.90
2023-03-18T01:17:01.101Z,5.80
2023-03-18T01:22:04.170Z,5.90
2023-03-18T01:27:08.185Z,7.00
2023-03-18T01:32:10.370Z,7.30
2023-03-18T01:37:13.988Z,6.70
2023-03-18T01:42:18.566Z,6.20
2023-03-18T01:47:22.795Z,5.80
2023-03-18T01:52:30.089Z,5.60
2023-03-18T01:57:35.002Z,5.50
2023-03-18T02:02:37.600Z,5.30
2023-03-18T02:07:43.018Z,5.20
2023-03-18T02:12:51.180Z,5.10
2023-03-18T02:17:56.544Z,5.10
2023-03-18T02:23:08.094Z,5.10
2023-03-18T02:28:14.600Z,5.00
2023-03-18T02:33:18.580Z,5.10
2023-03-18T02:38:20.788Z,5.00
2023-03-18T02:43:27.471Z,5.00
2023-03-18T02:48:36.146Z,5.10
2023-03-18T02:53:38.988Z,5.00
2023-03-18T02:58:44.123Z,5.10
2023-03-18T03:03:47.127Z,5.10
2023-03-18T03:08:49.682Z,5.00
2023-03-18T03:13:53.829Z,5.00
2023-03-18T03:18:56.192Z,4.80
2023-03-18T03:23:58.532Z,4.60
2023-03-18T03:29:02.839Z,4.80
2023-03-18T03:34:04.965Z,4.80
2023-03-18T03:39:07.516Z,4.80
2023-03-18T03:44:11.466Z,4.80
2023-03-18T03:49:13.655Z,4.60
2023-03-18T03:54:16.977Z,4.70
2023-03-18T03:59:20.673Z,4.70
2023-03-18T04:04:22.812Z,4.60
2023-03-18T04:09:25.686Z,4.60
2023-03-18T04:14:29.294Z,4.70
2023-03-18T04:19:31.648Z,4.90
2023-03-18T04:24:33.970Z,4.80
2023-03-18T04:29:37.632Z,4.70
2023-03-18T04:34:39.922Z,4.60
2023-03-18T04:39:42.972Z,4.60
2023-03-18T04:44:46.766Z,4.60
2023-03-18T04:49:49.441Z,4.60
2023-03-18T04:54:52.050Z,4.50
2023-03-18T04:59:57.145Z,4.50
2023-03-18T05:05:01.591Z,4.50
2023-03-18T05:10:04.245Z,4.40
2023-03-18T05:15:11.555Z,4.40
2023-03-18T05:20:14.990Z,4.50
2023-03-18T05:25:17.947Z,4.30
2023-03-18T05:30:23.172Z,4.10
2023-03-18T05:35:26.350Z,4.10
2023-03-18T05:40:29.090Z,4.20
2023-03-18T05:45:36.773Z,4.30
2023-03-18T05:50:45.710Z,4.10
2023-03-18T05:55:49.688Z,4.20
2023-03-18T06:01:02.632Z,4.00
2023-03-18T06:06:09.907Z,4.10
2023-03-18T06:11:12.534Z,4.10
2023-03-18T06:16:29.962Z,4.20
2023-03-18T06:21:34.297Z,4.20
2023-03-18T06:26:44.121Z,4.20
2023-03-18T06:31:50.496Z,4.30
2023-03-18T06:36:53.394Z,4.50
2023-03-18T06:41:58.031Z,4.60
2023-03-18T06:47:09.299Z,4.80
2023-03-18T06:52:16.052Z,4.70
2023-03-18T06:57:24.140Z,4.70
2023-03-18T07:02:40.313Z,4.80
2023-03-18T07:08:11.048Z,5.30
2023-03-18T07:13:19.499Z,5.90
2023-03-18T07:18:40.752Z,6.30
2023-03-18T07:23:59.681Z,7.10
2023-03-18T07:29:01.968Z,7.70
2023-03-18T07:34:30.220Z,8.00
2023-03-18T07:39:56.077Z,8.60
2023-03-18T07:45:14.115Z,9.60
2023-03-18T07:50:25.388Z,10.60
2023-03-18T07:55:32.707Z,11.50
2023-03-18T08:00:36.008Z,12.20
2023-03-18T08:05:59.311Z,12.40
2023-03-18T08:11:04.958Z,12.60
2023-03-18T08:16:12.634Z,13.00
2023-03-18T08:21:23.718Z,13.60
2023-03-18T08:26:40.077Z,14.30
2023-03-18T08:31:55.955Z,15.00
2023-03-18T08:37:00.466Z,15.90
2023-03-18T08:42:11.206Z,16.50
2023-03-18T08:47:18.475Z,16.80
2023-03-18T08:52:25.810Z,17.10
2023-03-18T08:57:33.084Z,17.70
2023-03-18T09:02:35.964Z,18.60
2023-03-18T09:07:40.393Z,19.00
2023-03-18T09:12:50.283Z,18.10
2023-03-18T09:18:09.932Z,18.40
2023-03-18T09:23:18.466Z,19.50
2023-03-18T09:28:27.207Z,19.70
2023-03-18T09:33:35.297Z,19.10
2023-03-18T09:38:46.943Z,19.40
2023-03-18T09:44:00.438Z,20.50
2023-03-18T09:49:34.692Z,21.10
2023-03-18T09:54:45.361Z,20.90
2023-03-18T09:59:52.806Z,21.50
2023-03-18T10:05:08.731Z,21.80
2023-03-18T10:10:24.596Z,21.80
2023-03-18T10:16:13.836Z,22.10
2023-03-18T10:21:26.383Z,22.70
2023-03-18T10:26:34.197Z,24.10
2023-03-18T10:31:59.082Z,23.90
2023-03-18T10:37:07.999Z,23.60
2023-03-18T10:42:23.835Z,24.00
2023-03-18T10:47:29.854Z,24.60
2023-03-18T10:52:37.245Z,23.80
2023-03-18T10:57:40.866Z,24.10
2023-03-18T11:02:43.937Z,24.70
2023-03-18T11:07:57.843Z,25.40
2023-03-18T11:13:02.858Z,26.10
2023-03-18T11:18:06.214Z,25.70
2023-03-18T11:23:17.789Z,24.90
2023-03-18T11:28:29.495Z,24.90
2023-03-18T11:33:35.353Z,26.00
2023-03-18T11:38:38.977Z,25.50
2023-03-18T11:43:56.495Z,24.60
2023-03-18T11:48:59.585Z,24.50
2023-03-18T11:54:25.026Z,24.80
2023-03-18T11:59:51.061Z,25.10
2023-03-18T12:05:18.355Z,25.50
2023-03-18T12:10:26.555Z,25.40
2023-03-18T12:15:40.220Z,26.50
2023-03-18T12:20:52.411Z,26.30
2023-03-18T12:26:08.681Z,23.90
2023-03-18T12:31:40.881Z,23.70
2023-03-18T12:36:59.104Z,24.20
2023-03-18T12:42:04.783Z,25.40
2023-03-18T12:47:12.402Z,26.90
2023-03-18T12:52:26.146Z,27.00
2023-03-18T12:57:38.011Z,28.20
2023-03-18T13:02:49.352Z,27.50
2023-03-18T13:08:03.401Z,27.40
2023-03-18T13:13:11.859Z,28.00
2023-03-18T13:18:21.248Z,28.50
2023-03-18T13:23:38.681Z,28.90
2023-03-18T13:28:52.675Z,29.80
2023-03-18T13:34:38.706Z,29.70
2023-03-18T13:39:54.576Z,29.00
2023-03-18T13:45:06.979Z,27.30
2023-03-18T13:50:35.854Z,24.80
2023-03-18T13:55:47.773Z,23.90
2023-03-18T14:01:28.694Z,23.50
2023-03-18T14:07:03.853Z,23.20
2023-03-18T14:12:24.259Z,22.20
2023-03-18T14:17:47.912Z,21.30
2023-03-18T14:22:53.141Z,21.10
2023-03-18T14:28:00.505Z,21.10
2023-03-18T14:33:04.789Z,20.60
2023-03-18T14:38:11.494Z,20.10
2023-03-18T14:43:21.550Z,19.90
2023-03-18T14:48:29.452Z,20.10
2023-03-18T14:53:35.509Z,20.20
2023-03-18T14:58:39.298Z,20.40
2023-03-18T15:03:44.963Z,21.80
2023-03-18T15:08:51.880Z,22.20
2023-03-18T15:14:00.250Z,20.90
2023-03-18T15:19:05.419Z,20.50
2023-03-18T15:24:09.640Z,20.00
2023-03-18T15:29:28.299Z,19.70
2023-03-18T15:34:31.937Z,19.60
2023-03-18T15:39:36.957Z,19.60
2023-03-18T15:44:43.243Z,19.50
2023-03-18T15:49:55.084Z,19.80
2023-03-18T15:54:59.124Z,20.50
2023-03-18T16:00:04.667Z,20.40
2023-03-18T16:05:09.371Z,20.30
2023-03-18T16:10:13.000Z,19.90
2023-03-18T16:15:22.313Z,19.20
2023-03-18T16:20:26.229Z,18.80
2023-03-18T16:25:29.213Z,18.10
2023-03-18T16:30:34.111Z,17.50
2023-03-18T16:35:38.618Z,17.20
2023-03-18T16:40:41.064Z,16.90
2023-03-18T16:45:45.336Z,16.50
2023-03-18T16:50:50.286Z,16.30
2023-03-18T16:55:56.091Z,15.90
2023-03-18T17:01:00.301Z,15.60
2023-03-18T17:06:03.021Z,15.50
2023-03-18T17:11:08.303Z,15.40
2023-03-18T17:16:17.731Z,15.20
2023-03-18T17:21:20.663Z,15.00
2023-03-18T17:26:25.284Z,14.70
2023-03-18T17:31:30.142Z,14.40
2023-03-18T17:36:33.442Z,14.10
2023-03-18T17:41:36.539Z,14.10
2023-03-18T17:46:42.736Z,13.70
2023-03-18T17:51:49.189Z,13.50
2023-03-18T17:56:52.476Z,13.20
2023-03-18T18:01:58.355Z,13.20
2023-03-18T18:07:00.897Z,13.00
2023-03-18T18:12:05.885Z,12.70
2023-03-18T18:17:16.342Z,12.60
2023-03-18T18:22:23.285Z,12.60
2023-03-18T18:27:26.606Z,12.40
2023-03-18T18:32:30.652Z,12.30
2023-03-18T18:37:34.071Z,12.20
2023-03-18T18:42:38.914Z,12.10
2023-03-18T18:47:45.023Z,11.80
2023-03-18T18:52:48.675Z,11.60
2023-03-18T18:57:52.271Z,11.40
2023-03-18T19:02:59.997Z,11.10
2023-03-18T19:08:04.312Z,10.90
2023-03-18T19:13:14.452Z,10.80
2023-03-18T19:18:25.756Z,10.60
2023-03-18T19:23:31.936Z,10.50
2023-03-18T19:28:58.938Z,10.50
2023-03-18T19:34:08.765Z,10.50
2023-03-18T19:39:17.461Z,10.50
2023-03-18T19:44:23.707Z,10.40
2023-03-18T19:49:37.055Z,10.50
2023-03-18T19:54:41.495Z,10.40
2023-03-18T19:59:47.561Z,10.20
2023-03-18T20:04:53.237Z,10.10
2023-03-18T20:09:57.482Z,10.00
2023-03-18T20:15:01.663Z,9.90
2023-03-18T20:20:08.129Z,9.60
2023-03-18T20:25:20.907Z,9.50
2023-03-18T20:30:27.308Z,9.50
2023-03-18T20:35:35.054Z,9.70
2023-03-18T20:40:41.860Z,9.80
2023-03-18T20:45:45.699Z,9.70
2023-03-18T20:50:52.635Z,9.50
2023-03-18T20:55:58.010Z,9.40
2023-03-18T21:01:05.225Z,9.40
2023-03-18T21:06:15.672Z,9.30
2023-03-18T21:11:25.654Z,9.20
2023-03-18T21:16:28.447Z,9.10
2023-03-18T21:21:38.481Z,9.20
2023-03-18T21:26:44.626Z,9.10
2023-03-18T21:31:52.804Z,9.10
2023-03-18T21:36:57.761Z,9.10
2023-03-18T21:42:00.575Z,9.10
2023-03-18T21:47:05.048Z,8.90
2023-03-18T21:52:15.296Z,8.90
2023-03-18T21:57:19.495Z,9.00
2023-03-18T22:02:30.537Z,8.80
2023-03-18T22:07:34.290Z,8.70
2023-03-18T22:12:37.560Z,8.70
2023-03-18T22:17:41.272Z,8.60
2023-03-18T22:22:45.364Z,8.70
2023-03-18T22:27:47.256Z,9.10
2023-03-18T22:32:50.712Z,9.30
2023-03-18T22:37:55.347Z,9.20
2023-03-18T22:42:59.689Z,9.30
2023-03-18T22:48:03.816Z,9.40
2023-03-18T22:53:09.376Z,9.20
2023-03-18T22:58:19.279Z,8.80
2023-03-18T23:03:23.561Z,8.50
2023-03-18T23:08:28.436Z,8.50
2023-03-18T23:13:34.637Z,8.50
2023-03-18T23:18:37.739Z,8.60
2023-03-18T23:23:41.381Z,8.60
2023-03-18T23:28:45.133Z,8.60
2023-03-18T23:33:47.504Z,8.90
2023-03-18T23:38:51.800Z,9.20
2023-03-18T23:43:53.981Z,9.30
2023-03-18T23:48:56.058Z,9.20
2023-03-18T23:54:01.125Z,9.30
2023-03-18T23:59:03.630Z,9.20
